Latest Weather Observations for Dalwallinu

IDW60801

Issued at 10:23 am WST Tuesday 22 September 2020 (issued every 10 minutes, with the page automatically refreshed every 10 minutes)

About weather observations | Map of weather stations | Latest weather observations for WA | Other Formats
Station Details ID: 008297 Name: DALWALLINU Lat: -30.28 Lon: 116.67 Height: 324.5 m
Data from the previous 72 hours. | See also: Recent months at Dalwallinu
Date/Time
WST
Temp
°C
App
Temp
°C
Dew
Point
°C
Rel
Hum
%
Delta-T
°C
Wind Press
QNH
hPa
Press
MSL
hPa
Rain since
9am
mm
Dir  Spd
km/h
Gust
km/h
Spd
kts
Gust
kts
22/10:00am 16.6 14.0 7.8 56 4.5 SE 11 19 6 10 1025.0 1024.7 0.0
22/09:30am 16.0 13.1 8.0 59 4.1 SSE 13 19 7 10 1025.2 1024.9 0.0
22/09:00am 14.9 12.4 8.4 65 3.3 SSE 11 17 6 9 1025.3 1025.0 0.0
22/08:30am 13.9 11.9 8.7 71 2.7 SSE 9 13 5 7 1025.2 1024.9 0.0
22/08:00am 12.2 10.9 9.2 82 1.5 E 6 9 3 5 1025.1 1024.8 0.0
22/07:30am 10.5 10.4 9.4 93 0.6 CALM 0 0 0 0 1024.9 1024.6 0.0
22/07:00am 8.7 7.8 7.9 95 0.4 S 2 6 1 3 1024.3 1024.1 0.0
22/06:30am 7.6 6.5 6.7 94 0.4 S 2 6 1 3 1024.0 1023.8 0.0
22/06:00am 7.4 5.3 6.5 94 0.4 SSW 7 9 4 5 1023.7 1023.4 0.0
22/05:30am 7.3 4.8 6.4 94 0.4 SSW 9 9 5 5 1023.4 1023.1 0.0
22/05:00am 5.6 2.6 3.9 89 0.7 SSW 9 11 5 6 1023.1 1022.8 0.0
22/04:30am 6.0 4.8 4.5 90 0.7 CALM 0 0 0 0 1023.0 1022.7 0.0
22/04:00am 8.2 5.8 7.0 92 0.6 SW 9 11 5 6 1022.8 1022.5 0.0
22/03:30am 8.3 5.2 7.1 92 0.6 SW 13 17 7 9 1022.7 1022.4 0.0
22/03:00am 8.4 5.7 7.2 92 0.6 SW 11 13 6 7 1022.8 1022.5 0.0
22/02:30am 8.5 5.4 7.3 92 0.6 SSW 13 15 7 8 1022.8 1022.5 0.0
22/02:00am 8.7 5.6 7.3 91 0.7 SW 13 15 7 8 1023.0 1022.7 0.0
22/01:30am 8.8 5.7 7.3 90 0.7 SW 13 15 7 8 1023.1 1022.8 0.0
22/01:00am 9.0 6.3 7.3 89 0.8 SW 11 15 6 8 1023.1 1022.8 0.0
22/12:30am 9.3 6.6 7.4 88 0.9 SW 11 17 6 9 1023.1 1022.8 0.0
22/12:00am 9.1 5.6 7.2 88 0.9 SW 15 20 8 11 1023.2 1022.9 0.0
 
Date/Time
WST
Temp
°C
App
Temp
°C
Dew
Point
°C
Rel
Hum
%
Delta-T
°C
Wind Press
QNH
hPa
Press
MSL
hPa
Rain since
9am
mm
Dir  Spd
km/h
Gust
km/h
Spd
kts
Gust
kts
21/11:30pm 9.2 5.7 7.3 88 0.9 SSW 15 20 8 11 1023.2 1022.9 0.0
21/11:00pm 9.2 5.7 7.0 86 1.0 SW 15 19 8 10 1023.2 1022.9 0.0
21/10:30pm 9.5 6.0 7.1 85 1.2 SSW 15 20 8 11 1023.2 1022.9 0.0
21/10:00pm 9.9 5.6 7.0 82 1.4 SSW 19 24 10 13 1023.3 1023.0 0.0
21/09:30pm 10.0 5.5 6.3 78 1.8 SSW 19 24 10 13 1023.4 1023.1 0.0
21/09:00pm 10.1 6.3 5.9 75 2.0 SSW 15 19 8 10 1023.5 1023.2 0.0
21/08:30pm 10.5 6.6 5.5 71 2.3 SW 15 19 8 10 1023.5 1023.2 0.0
21/08:00pm 11.6 7.7 5.5 66 2.9 SW 15 20 8 11 1023.3 1023.0 0.0
21/07:30pm 12.1 8.6 5.3 63 3.2 SW 13 17 7 9 1023.1 1022.8 0.0
21/07:00pm 12.7 8.7 5.1 60 3.6 SSW 15 20 8 11 1022.6 1022.3 0.0
21/06:30pm 13.7 9.8 5.3 57 4.0 SSW 15 20 8 11 1022.4 1022.1 0.0
21/06:00pm 14.7 9.9 5.5 54 4.4 SSW 20 26 11 14 1022.0 1021.7 0.0
21/05:30pm 15.9 11.6 5.2 49 5.2 SSW 17 22 9 12 1021.8 1021.5 0.0
21/05:00pm 16.2 10.9 4.9 47 5.4 SSW 22 32 12 17 1021.7 1021.4 0.0
21/04:30pm 17.2 11.5 4.9 44 6.0 S 24 33 13 18 1021.5 1021.2 0.0
21/04:00pm 18.3 13.8 4.1 39 6.8 SW 17 26 9 14 1021.1 1020.8 0.0
21/03:30pm 18.4 13.6 4.6 40 6.7 SW 19 28 10 15 1021.0 1020.7 0.0
21/03:00pm 17.9 12.8 4.1 40 6.6 SSW 20 33 11 18 1021.1 1020.8 0.0
21/02:30pm 17.7 13.1 3.9 40 6.6 WSW 17 30 9 16 1021.2 1020.9 0.0
21/02:00pm 17.7 13.6 4.3 41 6.4 SW 15 32 8 17 1021.5 1021.2 0.0
21/01:30pm 17.0 11.5 4.0 42 6.2 SW 22 35 12 19 1021.7 1021.4 0.0
21/01:00pm 16.0 10.7 5.0 48 5.3 SSW 22 32 12 17 1022.0 1021.7 0.0
21/12:30pm 15.8 11.0 4.8 48 5.3 SSW 19 30 10 16 1022.3 1022.0 0.0
21/12:00pm 16.0 11.7 5.3 49 5.2 WSW 17 24 9 13 1022.5 1022.2 0.0
21/11:30am 15.0 10.2 4.4 49 5.0 SSW 19 30 10 16 1022.8 1022.5 0.0
21/11:00am 14.3 9.4 4.9 53 4.4 SSW 20 30 11 16 1023.1 1022.8 0.0
21/10:30am 14.3 9.6 5.1 54 4.4 SSW 19 28 10 15 1023.1 1022.8 0.0
21/10:00am 13.7 9.6 6.3 61 3.6 SSW 17 26 9 14 1023.2 1022.9 0.0
21/09:30am 13.1 9.0 6.0 62 3.4 SSW 17 22 9 12 1023.3 1023.0 0.0
21/09:00am 11.9 8.1 5.8 66 2.9 SSW 15 20 8 11 1023.3 1023.0 0.2
21/08:30am 11.4 8.0 6.1 70 2.5 SSW 13 20 7 11 1023.2 1022.9 0.2
21/08:00am 11.1 7.4 6.5 73 2.2 SSW 15 20 8 11 1022.9 1022.6 0.2
21/07:30am 10.8 8.7 8.4 85 1.2 SW 9 11 5 6 1022.6 1022.3 0.2
21/07:00am 8.9 6.7 7.8 93 0.5 W 9 11 5 6 1022.3 1022.0 0.2
21/06:30am 8.4 5.7 7.3 93 0.5 W 11 13 6 7 1022.0 1021.7 0.2
21/06:00am 8.1 5.7 6.9 92 0.6 W 9 11 5 6 1021.9 1021.6 0.2
21/05:30am 8.5 6.5 7.1 91 0.7 W 7 9 4 5 1021.6 1021.3 0.2
21/05:00am 8.9 6.6 7.5 91 0.7 W 9 11 5 6 1021.4 1021.1 0.2
21/04:30am 8.8 6.9 7.4 91 0.7 W 7 9 4 5 1021.0 1020.7 0.2
21/04:00am 8.7 6.4 7.3 91 0.7 W 9 13 5 7 1021.0 1020.7 0.2
21/03:30am 8.6 6.2 7.2 91 0.7 W 9 13 5 7 1020.8 1020.5 0.2
21/03:00am 8.5 6.2 7.3 92 0.6 W 9 13 5 7 1020.8 1020.5 0.2
21/02:30am 8.3 5.9 6.9 91 0.7 W 9 13 5 7 1020.9 1020.6 0.2
21/02:00am 8.2 6.1 6.8 91 0.7 WSW 7 11 4 6 1021.0 1020.7 0.2
21/01:30am 8.1 5.6 6.7 91 0.7 W 9 13 5 7 1021.1 1020.8 0.2
21/01:00am 8.2 6.1 6.8 91 0.7 W 7 11 4 6 1021.1 1020.8 0.2
21/12:30am 8.1 5.6 6.6 90 0.7 W 9 13 5 7 1021.7 1021.4 0.2
21/12:00am 7.9 5.0 6.5 91 0.7 W 11 13 6 7 1021.6 1021.3 0.2
 
Date/Time
WST
Temp
°C
App
Temp
°C
Dew
Point
°C
Rel
Hum
%
Delta-T
°C
Wind Press
QNH
hPa
Press
MSL
hPa
Rain since
9am
mm
Dir  Spd
km/h
Gust
km/h
Spd
kts
Gust
kts
20/11:30pm 7.1 4.7 5.3 88 0.8 W 7 11 4 6 1021.2 1020.9 0.2
20/11:00pm 7.8 5.5 5.8 87 0.9 W 7 11 4 6 1021.4 1021.1 0.2
20/10:30pm 8.1 5.5 6.1 87 0.9 WSW 9 11 5 6 1021.1 1020.8 0.2
20/10:00pm 8.0 5.4 6.0 87 0.9 WNW 9 9 5 5 1021.4 1021.1 0.2
20/09:30pm 8.3 5.7 6.1 86 1.0 W 9 13 5 7 1021.5 1021.2 0.2
20/09:00pm 8.8 6.3 6.4 85 1.1 W 9 15 5 8 1021.4 1021.1 0.2
20/08:30pm 9.4 6.6 6.8 84 1.2 WSW 11 17 6 9 1021.4 1021.1 0.2
20/08:00pm 9.7 6.4 6.6 81 1.5 WSW 13 19 7 10 1021.0 1020.7 0.2
20/07:30pm 10.3 6.3 6.6 78 1.8 WSW 17 24 9 13 1020.6 1020.3 0.2
20/07:00pm 10.8 6.8 6.7 76 2.0 SW 17 26 9 14 1020.3 1020.0 0.2
20/06:30pm 11.4 6.7 7.7 78 1.8 SW 22 39 12 21 1020.0 1019.7 0.2
20/06:00pm 11.4 7.1 7.7 78 1.8 SW 20 32 11 17 1019.6 1019.3 0.2
20/05:30pm 11.9 6.4 7.4 74 2.2 WSW 26 43 14 23 1019.3 1019.0 0.2
20/05:00pm 12.7 7.2 7.6 71 2.5 SW 26 37 14 20 1019.1 1018.8 0.2
20/04:40pm 13.4 7.4 7.0 65 3.2 SW 28 50 15 27 1018.9 1018.6 0.0
20/04:30pm 13.4 8.7 7.8 69 2.8 SW 22 32 12 17 1018.6 1018.2 0.0
20/04:00pm 16.2 9.6 4.3 45 5.7 WSW 28 46 15 25 1018.2 1017.8 0.0
20/03:33pm 16.4 9.3 3.8 43 5.9 WSW 30 48 16 26 1017.7 1017.4 0.0
20/03:30pm 17.0 10.2 5.0 45 5.8 WSW 30 46 16 25 1017.8 1017.5 0.0
20/03:00pm 16.7 10.2 4.7 45 5.8 WSW 28 46 15 25 1017.4 1017.1 0.0
20/02:30pm 16.6 9.1 3.3 41 6.2 WSW 32 52 17 28 1017.3 1017.0 0.0
20/02:00pm 16.6 9.1 3.3 41 6.2 WSW 32 52 17 28 1017.1 1016.8 0.0
20/01:42pm 17.3 10.1 2.9 38 6.7 WSW 30 50 16 27 1017.1 1016.8 0.0
20/01:30pm 16.5 10.2 5.5 48 5.4 WSW 28 43 15 23 1017.4 1017.1 0.0
20/01:01pm 16.6 8.6 3.7 42 6.1 WSW 35 54 19 29 1017.4 1017.1 0.0
20/01:00pm 16.4 7.8 2.8 40 6.3 WSW 37 54 20 29 1017.3 1017.0 0.0
20/12:30pm 16.1 7.6 2.9 41 6.1 WSW 37 57 20 31 1017.3 1017.0 0.0
20/12:05pm 15.7 8.4 2.5 41 6.0 WSW 30 50 16 27 1017.6 1017.3 0.0
20/12:00pm 16.2 9.6 4.3 45 5.7 WSW 28 44 15 24 1017.7 1017.4 0.0
20/11:30am 15.4 8.2 3.2 44 5.6 WSW 30 48 16 26 1017.7 1017.4 0.0
20/11:06am 14.8 8.4 5.3 53 4.6 WSW 28 48 15 26 1017.8 1017.5 0.0
20/11:00am 15.6 8.4 4.9 49 5.1 W 32 46 17 25 1017.8 1017.5 0.0
20/10:33am 14.9 7.9 4.0 48 5.1 WSW 30 48 16 26 1017.5 1017.2 0.0
20/10:30am 15.3 8.5 5.0 50 4.9 WSW 30 43 16 23 1017.6 1017.3 0.0
20/10:02am 14.5 7.9 4.2 50 4.8 WSW 28 46 15 25 1017.5 1017.2 0.0
20/10:00am 14.4 8.0 5.0 53 4.5 WSW 28 43 15 23 1017.6 1017.3 0.0
20/09:30am 12.8 6.4 5.0 59 3.7 WSW 28 46 15 25 1017.6 1017.3 0.0
20/09:29am 13.0 6.6 5.2 59 3.7 WSW 28 46 15 25 1017.7 1017.4 0.0
20/09:00am 13.0 7.1 5.7 61 3.5 WSW 26 41 14 22 1017.6 1017.3 0.6
20/08:30am 11.6 6.9 6.1 69 2.6 W 20 32 11 17 1017.6 1017.3 0.6
20/08:00am 10.2 5.4 5.8 74 2.1 W 20 30 11 16 1017.3 1017.0 0.6
20/07:30am 8.6 4.0 5.5 81 1.4 W 19 26 10 14 1016.9 1016.6 0.6
20/07:00am 6.3 2.9 4.0 85 1.0 WNW 11 17 6 9 1016.5 1016.2 0.6
20/06:30am 6.5 2.4 4.2 85 1.0 W 15 20 8 11 1016.1 1015.8 0.6
20/06:00am 6.2 2.4 3.9 85 1.0 W 13 20 7 11 1016.1 1015.8 0.6
20/05:30am 6.2 2.0 4.0 86 1.0 WNW 15 20 8 11 1015.7 1015.3 0.6
20/05:00am 6.2 2.5 4.2 87 0.9 WNW 13 19 7 10 1015.6 1015.2 0.6
20/04:30am 7.2 2.8 4.5 83 1.2 W 17 28 9 15 1015.2 1014.8 0.6
20/04:00am 6.5 2.8 4.3 86 1.0 WNW 13 19 7 10 1015.2 1014.8 0.6
20/03:30am 6.4 2.7 4.2 86 1.0 W 13 17 7 9 1015.1 1014.7 0.6
20/03:00am 5.8 2.3 3.6 86 0.9 W 11 15 6 8 1015.2 1014.8 0.6
20/02:30am 6.0 2.2 3.8 86 0.9 W 13 19 7 10 1015.5 1015.1 0.6
20/02:00am 6.1 2.2 3.4 83 1.2 WNW 13 17 7 9 1015.5 1015.1 0.6
20/01:30am 6.5 3.1 3.8 83 1.2 WNW 11 17 6 9 1015.7 1015.3 0.6
20/01:00am 6.8 3.0 3.9 82 1.3 WNW 13 17 7 9 1015.9 1015.5 0.6
20/12:30am 7.7 4.0 4.7 81 1.3 W 13 19 7 10 1016.0 1015.6 0.6
20/12:00am 8.5 4.2 5.1 79 1.5 W 17 26 9 14 1015.9 1015.5 0.6
 
Date/Time
WST
Temp
°C
App
Temp
°C
Dew
Point
°C
Rel
Hum
%
Delta-T
°C
Wind Press
QNH
hPa
Press
MSL
hPa
Rain since
9am
mm
Dir  Spd
km/h
Gust
km/h
Spd
kts
Gust
kts
19/11:30pm 8.4 4.9 5.5 82 1.3 W 13 20 7 11 1015.8 1015.4 0.6
19/11:00pm 9.0 4.4 5.7 80 1.5 W 19 28 10 15 1015.8 1015.4 0.6
19/10:30pm 9.3 5.0 5.1 75 1.9 W 17 24 9 13 1015.8 1015.4 0.6
19/10:00pm 9.1 4.8 5.3 77 1.7 W 17 24 9 13 1015.7 1015.3 0.6
19/09:30pm 9.4 4.6 5.8 78 1.7 W 20 33 11 18 1015.8 1015.4 0.6
19/09:00pm 9.4 4.9 5.9 79 1.6 W 19 30 10 16 1015.6 1015.2 0.6
19/08:30pm 9.9 5.6 6.8 81 1.5 WSW 19 26 10 14 1015.4 1015.0 0.6
19/08:00pm 9.6 5.6 6.7 82 1.4 W 17 24 9 13 1014.9 1014.5 0.6
19/07:30pm 10.4 7.0 7.6 83 1.4 W 15 19 8 10 1014.5 1014.2 0.6
19/07:00pm 11.1 8.3 8.5 84 1.3 WSW 13 20 7 11 1014.1 1013.8 0.6
19/06:30pm 11.5 8.0 8.7 83 1.4 W 17 24 9 13 1013.8 1013.5 0.6
19/06:00pm 11.5 7.0 8.5 82 1.5 W 22 35 12 19 1013.3 1012.9 0.6
19/05:30pm 11.8 5.3 8.1 78 1.8 W 32 56 17 30 1013.2 1012.8 0.6
19/05:00pm 13.8 7.2 7.8 67 3.0 W 32 50 17 27 1012.4 1012.0 0.2
19/04:31pm 15.2 8.4 4.9 50 4.9 WSW 30 48 16 26 1012.2 1011.8 0.2
19/04:30pm 15.1 7.9 5.0 51 4.8 WSW 32 48 17 26 1012.2 1011.8 0.2
19/04:00pm 17.2 8.9 2.4 37 6.8 W 35 56 19 30 1011.3 1011.0 0.2
19/03:44pm 17.0 9.5 3.7 41 6.3 WSW 32 52 17 28 1011.3 1011.0 0.2
19/03:30pm 16.7 9.1 3.7 42 6.1 W 33 46 18 25 1011.2 1010.9 0.2
19/03:15pm 17.2 10.6 4.2 42 6.2 WSW 28 46 15 25 1011.0 1010.7 0.2
19/03:00pm 16.6 9.7 2.6 39 6.5 WSW 28 44 15 24 1010.9 1010.6 0.2
19/02:32pm 16.9 9.9 3.9 42 6.2 W 30 50 16 27 1010.8 1010.5 0.2
19/02:30pm 17.4 10.6 3.0 38 6.7 WSW 28 43 15 23 1010.9 1010.6 0.2
19/02:11pm 17.3 10.6 3.6 40 6.5 W 28 50 15 27 1010.7 1010.3 0.2
19/02:00pm 18.3 11.4 4.8 41 6.6 W 30 44 16 24 1010.7 1010.3 0.2
19/01:30pm 17.6 10.4 3.1 38 6.8 WSW 30 43 16 23 1010.7 1010.3 0.2
19/01:13pm 17.6 10.8 4.9 43 6.2 WSW 30 52 16 28 1010.7 1010.3 0.2
19/01:00pm 17.5 11.0 6.4 48 5.6 WSW 30 46 16 25 1010.6 1010.2 0.2
19/12:45pm 16.8 10.5 7.2 53 4.9 WSW 30 48 16 26 1010.6 1010.2 0.2
19/12:30pm 16.8 11.6 7.2 53 4.9 W 24 33 13 18 1010.6 1010.2 0.2
19/12:06pm 16.4 10.9 9.1 62 3.8 WSW 28 46 15 25 1010.9 1010.6 0.2
19/12:00pm 16.8 12.0 9.0 60 4.1 WSW 24 37 13 20 1010.8 1010.5 0.2
19/11:30am 15.9 11.8 10.2 69 3.0 WSW 22 35 12 19 1011.0 1010.7 0.2
19/11:00am 13.9 9.4 9.9 77 2.1 WSW 24 41 13 22 1011.2 1010.9 0.2
19/10:30am 13.3 7.6 11.0 86 1.2 SW 32 41 17 22 1011.2 1010.9 0.2

Other formats

Comma delimited format used in spreadsheet applications
http://www.bom.gov.au/fwo/IDW60801/IDW60801.95629.axf

JavaScript Object Notation format (JSON) in row-major order
http://www.bom.gov.au/fwo/IDW60801/IDW60801.95629.json

Data quality

Most of these data are generated automatically and are frequently updated. Quality checks on data are not normally performed. It is possible for incorrect values to appear. Refer to information at About Latest Weather Observations and please check the disclaimer before using these data.